Homer, North Dakota
Current Conditions -  °F | °C
As of 9:56 AM on Sunday 23 Nov 2014 (Local Time) from KJMS Reporting Station
Overcast Overcast  
Wind Chill: 30°   Ceiling: 4800
Heat Index: 39°   Visibility: 10mi
Dew Point: 32°   Wind: 18mph
Humidity: 76%   Direction: 280°W
Pressure: 29.42"   Gusts: 28mph
Location:  46.8494°N, 98.7424°W
Report Text: KJMS 231556Z AUTO 28016G24KT 10SM FEW036 OVC048 04/00 A2942 RMK AO2 SLP977 T00390000
Loading
Personal Weather Stations






























Interactive Weather Map New forecast layout! Learn more

10-Day Weather Forecast

Advertisements
Track Severe Weather on mobile